Time;durP1;ratioP1;P1;durP2;ratioP2;P2;SDS_P1;SDS_P2;PMS_P1;PMS_P2;Temp;Humidity;BMP_temperature;BMP_pressure;BME280_temperature;BME280_humidity;BME280_pressure;Samples;Min_cycle;Max_cycle;Signal;HPM_P1;HPM_P2
2023/06/16 00:00:33;;;;;;;18.27;13.70;;;;;;;12.61;77.96;100222.12;1764822;81;25616;-45
2023/06/16 00:03:02;;;;;;;18.50;14.78;;;;;;;12.60;78.02;100220.55;1765075;81;25568;-44
2023/06/16 00:05:29;;;;;;;15.68;13.72;;;;;;;12.59;77.95;100215.45;1764829;81;26041;-44
2023/06/16 00:08:00;;;;;;;19.90;14.18;;;;;;;12.54;78.02;100215.05;1764837;81;25576;-44
2023/06/16 00:10:27;;;;;;;19.50;15.38;;;;;;;12.52;78.07;100217.30;1764858;81;27525;-46
2023/06/16 00:12:54;;;;;;;17.30;14.07;;;;;;;12.50;78.35;100211.41;1764761;81;25545;-44
2023/06/16 00:15:21;;;;;;;21.02;15.48;;;;;;;12.46;78.01;100209.91;1764839;81;25541;-44
2023/06/16 00:17:49;;;;;;;22.05;15.93;;;;;;;12.44;78.39;100214.05;1764787;81;25521;-44
2023/06/16 00:20:20;;;;;;;16.40;14.70;;;;;;;12.43;78.61;100213.80;1764812;81;25548;-44
2023/06/16 00:22:50;;;;;;;17.60;14.83;;;;;;;12.39;78.24;100212.30;1762201;81;27471;-48
2023/06/16 00:25:19;;;;;;;20.12;14.75;;;;;;;12.36;78.08;100214.31;1761776;81;27337;-47
2023/06/16 00:27:47;;;;;;;19.20;14.70;;;;;;;12.33;78.23;100205.47;1761864;81;25460;-47
2023/06/16 00:30:14;;;;;;;16.37;13.35;;;;;;;12.28;77.91;100208.34;1761844;81;25553;-47
2023/06/16 00:32:40;;;;;;;15.60;13.25;;;;;;;12.27;77.84;100211.59;1761981;81;25416;-46
2023/06/16 00:35:09;;;;;;;17.42;14.40;;;;;;;12.24;78.00;100210.09;1761858;81;27531;-46
2023/06/16 00:37:35;;;;;;;16.87;14.87;;;;;;;12.22;78.29;100204.20;1761788;81;25393;-48
2023/06/16 00:40:05;;;;;;;18.80;15.48;;;;;;;12.19;78.52;100205.66;1760947;81;25710;-45
2023/06/16 00:42:32;;;;;;;20.30;14.80;;;;;;;12.15;78.78;100206.83;1761829;81;25514;-45
2023/06/16 00:44:58;;;;;;;17.48;14.53;;;;;;;12.12;79.07;100203.97;1761881;81;25620;-44
2023/06/16 00:47:24;;;;;;;20.32;15.03;;;;;;;12.06;79.07;100196.57;1761793;81;29767;-44
2023/06/16 00:49:52;;;;;;;18.92;16.10;;;;;;;12.04;79.17;100198.02;1761781;81;25532;-44
2023/06/16 00:52:21;;;;;;;16.90;14.98;;;;;;;12.01;79.04;100191.88;1761851;81;25563;-44
2023/06/16 00:54:47;;;;;;;23.35;15.75;;;;;;;11.95;79.28;100192.05;1761907;81;25540;-44
2023/06/16 00:57:14;;;;;;;16.27;14.45;;;;;;;11.92;79.49;100187.27;1761841;81;25658;-44
2023/06/16 00:59:41;;;;;;;21.07;16.67;;;;;;;11.90;78.98;100195.43;1761826;81;27568;-44
2023/06/16 01:02:07;;;;;;;20.45;17.20;;;;;;;11.90;79.14;100198.14;1761713;81;25380;-45
2023/06/16 01:04:35;;;;;;;20.52;16.85;;;;;;;11.89;78.98;100199.27;1761814;81;25391;-46
2023/06/16 01:07:11;;;;;;;20.43;17.67;;;;;;;11.88;78.94;100206.58;1761795;81;25641;-45
2023/06/16 01:10:02;;;;;;;19.17;16.70;;;;;;;11.85;79.34;100199.12;1762036;81;25457;-45
2023/06/16 01:12:39;;;;;;;20.75;17.00;;;;;;;11.83;79.26;100205.95;1761544;81;27817;-45
2023/06/16 01:15:13;;;;;;;23.40;19.42;;;;;;;11.81;79.67;100202.21;1761788;81;25730;-45
2023/06/16 01:17:46;;;;;;;23.60;18.40;;;;;;;11.80;80.62;100200.63;1761888;81;25561;-45
2023/06/16 01:20:53;;;;;;;22.55;18.25;;;;;;;11.81;80.37;100201.42;1761748;81;25561;-46
2023/06/16 01:24:01;;;;;;;21.82;17.40;;;;;;;11.80;80.56;100201.17;1761762;81;25382;-49
2023/06/16 01:26:32;;;;;;;22.73;17.97;;;;;;;11.76;80.32;100205.90;1762117;81;27449;-48
2023/06/16 01:29:06;;;;;;;19.27;17.12;;;;;;;11.75;80.73;100200.23;1761787;81;25457;-45
2023/06/16 01:31:36;;;;;;;19.25;17.25;;;;;;;11.71;80.67;100204.70;1761872;81;25517;-49
2023/06/16 01:34:06;;;;;;;22.70;18.27;;;;;;;11.68;80.74;100202.63;1761933;81;26193;-48
2023/06/16 01:36:37;;;;;;;21.97;18.32;;;;;;;11.66;80.69;100202.69;1761823;81;25386;-48
2023/06/16 01:39:05;;;;;;;23.40;18.40;;;;;;;11.64;80.80;100205.72;1761841;81;27507;-49
2023/06/16 01:41:35;;;;;;;22.17;17.82;;;;;;;11.62;81.04;100202.53;1732373;81;25684;-48
2023/06/16 01:44:05;;;;;;;20.55;17.73;;;;;;;11.59;80.92;100200.45;1762085;81;25560;-45
2023/06/16 01:46:32;;;;;;;19.23;16.45;;;;;;;11.56;80.73;100195.12;1762112;81;25560;-48
2023/06/16 01:49:00;;;;;;;21.42;16.40;;;;;;;11.56;81.02;100198.38;1761977;81;25389;-46
2023/06/16 01:51:27;;;;;;;19.65;16.55;;;;;;;11.55;81.01;100200.29;1761985;81;27533;-48
2023/06/16 01:53:54;;;;;;;20.08;16.37;;;;;;;11.55;80.79;100198.15;1761839;81;25594;-48
2023/06/16 01:56:20;;;;;;;19.70;16.70;;;;;;;11.52;80.57;100195.50;1761947;81;25631;-45
2023/06/16 01:58:47;;;;;;;20.12;17.27;;;;;;;11.51;80.39;100193.11;1761902;81;25561;-45
2023/06/16 02:01:30;;;;;;;19.30;17.23;;;;;;;11.48;80.26;100189.70;1761980;81;25371;-47
2023/06/16 02:04:14;;;;;;;20.27;16.73;;;;;;;11.48;80.56;100193.77;1761997;81;27584;-45
2023/06/16 02:06:58;;;;;;;19.73;17.70;;;;;;;11.44;80.54;100186.02;1761874;81;25503;-48
2023/06/16 02:09:27;;;;;;;20.82;17.02;;;;;;;11.42;80.68;100195.81;1761969;81;25594;-45
2023/06/16 02:11:56;;;;;;;18.77;15.38;;;;;;;11.38;80.86;100198.92;1762074;81;25467;-45
2023/06/16 02:14:24;;;;;;;19.85;16.80;;;;;;;11.35;80.98;100198.98;1762061;81;25461;-46
2023/06/16 02:16:52;;;;;;;20.80;17.17;;;;;;;11.35;81.20;100192.78;1762087;81;27556;-44
2023/06/16 02:19:20;;;;;;;20.65;16.30;;;;;;;11.33;81.36;100193.09;1761873;81;25616;-46
2023/06/16 02:21:46;;;;;;;20.77;16.77;;;;;;;11.31;81.34;100196.69;1761794;81;25540;-50
2023/06/16 02:24:12;;;;;;;23.30;16.93;;;;;;;11.29;81.41;100195.39;1761933;81;25629;-46
2023/06/16 02:26:39;;;;;;;21.80;17.65;;;;;;;11.27;81.58;100194.91;1761941;81;25538;-48
2023/06/16 02:29:06;;;;;;;20.02;17.67;;;;;;;11.24;81.71;100190.94;1761941;81;27612;-49
2023/06/16 02:31:32;;;;;;;20.17;16.90;;;;;;;11.23;81.55;100193.40;1761965;81;25541;-49
2023/06/16 02:33:58;;;;;;;19.10;15.43;;;;;;;11.24;81.19;100199.59;1761932;81;25470;-48
2023/06/16 02:36:24;;;;;;;23.10;15.90;;;;;;;11.22;81.03;100194.53;1761891;81;25525;-45
2023/06/16 02:38:51;;;;;;;21.02;16.25;;;;;;;11.21;80.84;100194.27;1761985;81;25555;-46
2023/06/16 02:41:18;;;;;;;23.00;17.02;;;;;;;11.18;80.80;100199.75;1761887;81;27508;-44
2023/06/16 02:43:44;;;;;;;25.85;18.02;;;;;;;11.15;80.94;100200.94;1761854;81;26138;-45
2023/06/16 02:46:10;;;;;;;22.25;17.23;;;;;;;11.15;80.88;100205.00;1761943;81;25567;-45
2023/06/16 02:48:36;;;;;;;22.35;17.77;;;;;;;11.10;80.72;100201.90;1761899;81;25719;-46
2023/06/16 02:51:04;;;;;;;23.27;18.17;;;;;;;11.09;81.25;100198.94;1761947;81;25415;-45
2023/06/16 02:53:30;;;;;;;22.65;17.50;;;;;;;11.06;81.31;100195.50;1761910;81;27568;-46
2023/06/16 02:55:58;;;;;;;22.65;17.37;;;;;;;11.03;81.46;100193.42;1761794;81;25737;-46
2023/06/16 02:58:25;;;;;;;23.87;18.05;;;;;;;11.01;81.72;100198.36;1761928;81;25414;-46
2023/06/16 03:00:51;;;;;;;22.58;17.92;;;;;;;10.96;81.77;100200.64;1761839;81;25543;-46
2023/06/16 03:03:17;;;;;;;21.35;18.48;;;;;;;10.94;82.13;100194.75;1761937;81;25637;-44
2023/06/16 03:05:44;;;;;;;20.97;17.02;;;;;;;10.94;82.29;100198.81;1761885;81;27463;-44
2023/06/16 03:08:10;;;;;;;22.52;18.23;;;;;;;10.92;82.28;100200.25;1761812;81;25539;-44
2023/06/16 03:10:36;;;;;;;21.02;17.65;;;;;;;10.94;82.29;100199.38;1761895;81;25390;-47
2023/06/16 03:13:03;;;;;;;29.75;26.07;;;;;;;10.96;82.40;100199.28;1761828;81;25664;-46
2023/06/16 03:15:30;;;;;;;25.40;20.57;;;;;;;10.99;82.53;100200.58;1761927;81;25568;-45
2023/06/16 03:17:57;;;;;;;22.45;18.48;;;;;;;11.00;82.54;100200.27;1761894;81;27502;-44
2023/06/16 03:20:25;;;;;;;21.68;17.98;;;;;;;11.05;83.07;100199.87;1761855;81;25414;-45
2023/06/16 03:22:52;;;;;;;20.08;18.00;;;;;;;11.05;83.01;100199.87;1761904;81;25445;-47
2023/06/16 03:25:21;;;;;;;20.52;18.25;;;;;;;11.06;82.86;100202.27;1761898;81;25571;-46
2023/06/16 03:27:48;;;;;;;20.72;18.00;;;;;;;11.07;83.05;100209.29;1762072;81;25571;-45
2023/06/16 03:30:16;;;;;;;21.57;16.93;;;;;;;11.09;83.26;100211.69;1761916;81;28199;-47
2023/06/16 03:32:44;;;;;;;20.12;17.25;;;;;;;11.10;83.14;100214.61;1761785;81;25470;-48
2023/06/16 03:35:12;;;;;;;20.92;18.52;;;;;;;11.12;82.96;100216.48;1761897;81;25462;-45
2023/06/16 03:37:39;;;;;;;24.50;19.07;;;;;;;11.13;82.98;100218.05;1761846;81;25660;-49
2023/06/16 03:40:08;;;;;;;21.90;17.73;;;;;;;11.15;82.96;100218.53;1761917;81;25567;-47
2023/06/16 03:42:35;;;;;;;23.98;18.52;;;;;;;11.16;83.31;100214.16;1761870;81;28047;-48
2023/06/16 03:45:03;;;;;;;20.62;18.42;;;;;;;11.18;83.50;100220.05;1761852;81;25462;-46
2023/06/16 03:47:30;;;;;;;21.97;17.80;;;;;;;11.20;83.65;100219.20;1761894;81;25573;-47
2023/06/16 03:49:59;;;;;;;22.55;18.02;;;;;;;11.23;83.87;100215.05;1761820;81;25505;-46
2023/06/16 03:52:25;;;;;;;20.82;18.57;;;;;;;11.28;83.98;100211.41;1762070;81;25387;-46
2023/06/16 03:54:52;;;;;;;23.42;19.30;;;;;;;11.31;84.02;100208.08;1761855;81;27621;-46
2023/06/16 03:57:18;;;;;;;23.90;18.27;;;;;;;11.33;84.12;100208.55;1761746;81;25429;-48
2023/06/16 03:59:45;;;;;;;20.20;18.02;;;;;;;11.36;84.60;100202.52;1761888;81;25372;-46
2023/06/16 04:02:12;;;;;;;23.32;19.07;;;;;;;11.43;84.91;100207.46;1761842;81;25572;-47
2023/06/16 04:04:42;;;;;;;22.02;17.87;;;;;;;11.48;85.25;100204.03;1761862;81;25524;-45
2023/06/16 04:07:07;;;;;;;20.65;18.42;;;;;;;11.57;85.73;100203.48;1761455;81;27523;-46
2023/06/16 04:09:35;;;;;;;20.95;18.12;;;;;;;11.66;85.87;100200.77;1761774;81;26028;-45
2023/06/16 04:12:01;;;;;;;24.07;18.85;;;;;;;11.75;86.26;100204.86;1761868;81;25488;-46
2023/06/16 04:14:27;;;;;;;28.73;23.98;;;;;;;11.85;86.33;100205.08;1761931;81;25587;-45
2023/06/16 04:16:53;;;;;;;30.30;25.55;;;;;;;11.92;86.77;100202.17;1761866;81;25377;-44
2023/06/16 04:19:19;;;;;;;34.30;26.65;;;;;;;12.03;87.55;100204.55;1761829;81;27547;-44
2023/06/16 04:21:46;;;;;;;67.30;61.73;;;;;;;12.13;87.93;100203.65;1761744;81;25370;-44
2023/06/16 04:24:14;;;;;;;28.52;24.90;;;;;;;12.24;88.17;100204.13;1761810;81;25547;-46
2023/06/16 04:26:41;;;;;;;34.10;27.30;;;;;;;12.35;88.29;100203.79;1761939;81;25595;-45
2023/06/16 04:29:08;;;;;;;30.05;25.65;;;;;;;12.46;88.48;100206.37;1761946;81;25583;-45
2023/06/16 04:31:37;;;;;;;30.77;23.38;;;;;;;12.57;88.70;100204.13;1761969;81;27509;-45
2023/06/16 04:34:03;;;;;;;31.82;24.95;;;;;;;12.69;88.98;100210.45;1761788;81;25543;-45
2023/06/16 04:36:31;;;;;;;31.40;27.98;;;;;;;12.83;89.09;100205.38;1761836;81;25689;-46
2023/06/16 04:38:59;;;;;;;33.02;26.42;;;;;;;12.97;89.30;100205.15;1761785;81;26132;-48
2023/06/16 04:41:26;;;;;;;30.05;26.27;;;;;;;13.09;89.25;100201.16;1761970;81;25600;-45
2023/06/16 04:43:52;;;;;;;31.33;24.87;;;;;;;13.22;89.17;100199.34;1761801;81;27539;-45
2023/06/16 04:46:19;;;;;;;29.07;24.63;;;;;;;13.35;89.14;100201.60;1761714;81;25587;-45
2023/06/16 04:48:45;;;;;;;30.60;26.27;;;;;;;13.49;89.41;100203.52;1761857;81;25620;-45
2023/06/16 04:51:12;;;;;;;30.25;26.02;;;;;;;13.62;89.07;100201.65;1761771;81;25534;-47
2023/06/16 04:53:38;;;;;;;31.33;25.57;;;;;;;13.74;88.97;100200.38;1761794;81;25578;-47
2023/06/16 04:56:05;;;;;;;29.63;26.33;;;;;;;13.87;89.03;100203.93;1761868;81;27522;-45
2023/06/16 04:58:31;;;;;;;29.60;25.02;;;;;;;14.01;89.49;100205.01;1761743;81;25548;-45
2023/06/16 05:00:58;;;;;;;30.30;25.50;;;;;;;14.14;89.51;100210.72;1761821;81;25607;-47
2023/06/16 05:03:25;;;;;;;28.60;25.52;;;;;;;14.28;88.86;100209.06;1761804;81;26304;-50
2023/06/16 05:05:52;;;;;;;28.42;24.95;;;;;;;14.41;89.08;100203.10;1761854;81;25614;-46
2023/06/16 05:08:18;;;;;;;28.87;24.10;;;;;;;14.52;88.54;100205.63;1761851;81;27517;-47
2023/06/16 05:10:45;;;;;;;29.52;25.30;;;;;;;14.64;88.22;100205.44;1761738;81;25469;-46
2023/06/16 05:13:12;;;;;;;30.30;25.23;;;;;;;14.75;87.66;100203.30;1761792;81;25590;-46
2023/06/16 05:15:38;;;;;;;28.83;24.70;;;;;;;14.90;88.38;100207.28;1761733;81;25621;-46
2023/06/16 05:18:05;;;;;;;29.10;24.00;;;;;;;15.01;87.27;100201.38;1761821;81;25606;-46
2023/06/16 05:20:31;;;;;;;28.38;24.63;;;;;;;15.13;86.82;100208.96;1761817;81;28530;-46
2023/06/16 05:23:02;;;;;;;28.23;23.57;;;;;;;15.28;87.75;100214.30;1758480;81;25622;-45
2023/06/16 05:25:27;;;;;;;27.02;22.52;;;;;;;15.42;87.20;100208.47;1745302;82;25423;-47
2023/06/16 05:27:53;;;;;;;30.72;22.20;;;;;;;15.59;87.19;100211.51;1745484;82;25545;-47
2023/06/16 05:30:19;;;;;;;27.65;23.12;;;;;;;15.78;86.98;100207.40;1745495;82;25585;-45
2023/06/16 05:32:45;;;;;;;28.27;22.32;;;;;;;15.99;86.73;100209.95;1745486;82;27542;-46
2023/06/16 05:35:12;;;;;;;27.90;23.47;;;;;;;16.18;86.15;100207.93;1745466;82;25498;-44
2023/06/16 05:37:39;;;;;;;26.77;22.07;;;;;;;16.35;85.60;100214.43;1745503;82;25621;-46
2023/06/16 05:40:07;;;;;;;25.20;21.73;;;;;;;16.51;85.23;100206.83;1745411;82;25548;-46
2023/06/16 05:42:33;;;;;;;25.55;21.48;;;;;;;16.70;84.80;100212.95;1745455;82;25406;-46
2023/06/16 05:44:59;;;;;;;21.10;18.80;;;;;;;16.87;84.64;100206.37;1745500;82;27513;-45
2023/06/16 05:47:26;;;;;;;34.80;31.55;;;;;;;17.05;84.01;100203.50;1745427;82;25574;-45
2023/06/16 05:49:52;;;;;;;19.80;16.93;;;;;;;17.21;82.91;100198.58;1745423;82;25556;-45
2023/06/16 05:52:19;;;;;;;19.82;16.97;;;;;;;17.41;82.42;100209.77;1745417;82;25517;-45
2023/06/16 05:54:45;;;;;;;26.40;17.30;;;;;;;17.53;80.38;100208.27;1745510;82;25565;-46
2023/06/16 05:57:11;;;;;;;19.00;16.00;;;;;;;17.66;80.25;100204.05;1745448;82;29696;-46
2023/06/16 05:59:38;;;;;;;18.25;15.05;;;;;;;17.80;79.83;100206.28;1745382;82;25555;-45
2023/06/16 06:02:06;;;;;;;18.67;15.85;;;;;;;17.94;79.83;100202.48;1745412;82;25362;-46
2023/06/16 06:04:34;;;;;;;21.02;15.13;;;;;;;18.10;79.38;100194.98;1745443;82;26143;-46
2023/06/16 06:07:01;;;;;;;17.60;14.87;;;;;;;18.28;78.45;100200.00;1745532;82;25398;-45
2023/06/16 06:09:29;;;;;;;16.80;15.00;;;;;;;18.39;77.49;100196.88;1745475;82;28382;-45
2023/06/16 06:11:55;;;;;;;19.07;15.05;;;;;;;18.53;77.24;100199.66;1745399;82;25802;-46
2023/06/16 06:14:23;;;;;;;19.02;13.90;;;;;;;18.70;76.10;100210.70;1745464;82;25538;-46
2023/06/16 06:16:49;;;;;;;18.52;14.58;;;;;;;18.81;75.79;100202.87;1745469;82;26093;-46
2023/06/16 06:19:15;;;;;;;16.23;14.60;;;;;;;18.97;75.26;100209.61;1745504;82;25568;-46
2023/06/16 06:21:42;;;;;;;15.50;13.20;;;;;;;19.09;74.95;100208.62;1745471;82;27407;-45
2023/06/16 06:24:09;;;;;;;14.90;13.10;;;;;;;19.23;73.81;100210.19;1745237;81;25774;-47
2023/06/16 06:26:38;;;;;;;17.77;13.75;;;;;;;19.36;72.70;100204.50;1745537;82;25541;-46
2023/06/16 06:29:06;;;;;;;16.00;12.73;;;;;;;19.49;72.61;100203.68;1745661;82;25578;-46
2023/06/16 06:31:33;;;;;;;17.87;12.73;;;;;;;19.68;72.04;100204.92;1745877;82;25553;-47
2023/06/16 06:33:59;;;;;;;16.80;12.25;;;;;;;19.85;71.45;100206.30;1745599;82;27480;-47
2023/06/16 06:46:47;;;;;;;12.98;11.05;;;;;;;20.74;67.78;100207.61;1838744;76;27042;-46
2023/06/16 06:49:13;;;;;;;28.23;25.88;;;;;;;20.96;67.28;100208.56;1789388;80;25882;-45
2023/06/16 06:51:40;;;;;;;14.33;10.15;;;;;;;21.19;66.28;100203.63;1801760;79;25376;-46
2023/06/16 06:54:07;;;;;;;10.60;9.25;;;;;;;21.42;65.86;100208.10;1789912;80;25614;-47
2023/06/16 06:56:34;;;;;;;82.70;77.90;;;;;;;21.60;64.95;100208.98;1801825;79;25444;-46
2023/06/16 06:59:00;;;;;;;10.30;9.25;;;;;;;21.81;64.51;100206.92;1789988;79;27513;-47
2023/06/16 07:01:26;;;;;;;57.98;53.85;;;;;;;21.99;63.28;100216.61;1801665;79;25576;-46
2023/06/16 07:03:52;;;;;;;78.80;74.00;;;;;;;22.12;62.87;100213.52;1789908;80;25588;-46
2023/06/16 07:06:18;;;;;;;42.50;39.55;;;;;;;22.26;61.99;100219.05;1801706;79;25570;-46
2023/06/16 07:08:45;;;;;;;78.72;73.67;;;;;;;22.39;61.82;100215.38;1789982;80;25563;-46
2023/06/16 07:11:11;;;;;;;74.32;69.55;;;;;;;22.48;60.56;100213.02;1801685;79;27595;-46
2023/06/16 07:13:37;;;;;;;76.90;71.90;;;;;;;22.53;59.37;100213.22;1789828;80;25436;-46
2023/06/16 07:16:04;;;;;;;16.23;14.63;;;;;;;22.62;59.00;100213.61;1801662;79;25534;-47
2023/06/16 07:18:30;;;;;;;11.12;9.03;;;;;;;22.83;59.15;100210.66;1789862;80;25531;-49
2023/06/16 07:20:57;;;;;;;12.45;9.53;;;;;;;23.04;58.42;100206.51;1801769;79;25417;-46
2023/06/16 07:23:25;;;;;;;78.78;74.17;;;;;;;23.27;58.08;100214.96;1789874;80;27464;-48
2023/06/16 07:25:52;;;;;;;44.75;41.65;;;;;;;23.46;56.58;100206.83;1801619;79;25531;-48
2023/06/16 07:28:19;;;;;;;77.62;73.05;;;;;;;23.60;56.16;100213.70;1789940;79;25567;-47
2023/06/16 07:30:45;;;;;;;76.77;72.15;;;;;;;23.80;55.85;100204.35;1801683;79;25655;-47
2023/06/16 07:33:11;;;;;;;28.45;26.35;;;;;;;24.04;55.61;100208.78;1789914;80;25453;-47
2023/06/16 07:35:38;;;;;;;9.60;8.70;;;;;;;24.30;55.56;100217.73;1801662;79;29687;-47
2023/06/16 07:38:04;;;;;;;13.25;8.18;;;;;;;24.53;55.28;100211.63;1789803;79;25380;-47
2023/06/16 07:40:31;;;;;;;10.13;9.13;;;;;;;24.80;54.88;100217.37;1801732;79;25558;-49
2023/06/16 07:42:58;;;;;;;9.30;7.87;;;;;;;25.04;54.12;100208.65;1789822;80;25738;-46
2023/06/16 07:45:24;;;;;;;9.48;7.97;;;;;;;25.28;53.00;100211.61;1803544;79;25419;-48
2023/06/16 07:47:50;;;;;;;11.45;8.13;;;;;;;25.35;51.13;100208.17;1788514;80;27441;-47
2023/06/16 07:50:17;;;;;;;73.10;68.72;;;;;;;25.41;51.09;100205.73;1813848;78;25582;-47
2023/06/16 07:52:43;;;;;;;8.30;7.35;;;;;;;25.58;50.32;100208.11;1788483;80;25546;-46
2023/06/16 07:55:10;;;;;;;8.80;8.00;;;;;;;25.81;49.97;100206.05;1813985;78;25513;-49
2023/06/16 07:57:38;;;;;;;71.47;67.27;;;;;;;25.96;49.01;100203.89;1788542;80;25441;-46
2023/06/16 08:00:11;;;;;;;75.90;71.42;;;;;;;26.07;48.61;100203.15;1814195;79;27475;-46
2023/06/16 08:02:42;;;;;;;74.80;70.30;;;;;;;26.28;48.33;100206.81;1788390;80;27316;-46
2023/06/16 08:05:11;;;;;;;71.00;66.90;;;;;;;26.34;47.14;100205.14;1813947;78;25610;-46
2023/06/16 08:07:39;;;;;;;73.80;69.25;;;;;;;26.38;46.89;100205.86;1788470;80;25485;-47
2023/06/16 08:10:07;;;;;;;70.85;66.80;;;;;;;26.53;47.02;100202.86;1813949;78;25543;-46
2023/06/16 08:12:34;;;;;;;75.12;70.52;;;;;;;26.61;46.13;100203.73;1788649;80;27496;-47
2023/06/16 08:15:00;;;;;;;9.33;7.08;;;;;;;26.68;45.35;100207.61;1813772;79;25441;-47
2023/06/16 08:17:27;;;;;;;71.90;67.70;;;;;;;26.76;45.52;100212.61;1788511;80;25542;-47
2023/06/16 08:19:53;;;;;;;72.78;68.72;;;;;;;26.86;45.01;100209.47;1813806;78;25562;-47
2023/06/16 08:22:20;;;;;;;72.17;67.87;;;;;;;27.06;45.24;100212.91;1788500;79;25465;-47
2023/06/16 08:24:46;;;;;;;73.12;69.03;;;;;;;27.25;44.25;100216.31;1813841;79;27596;-47
2023/06/16 08:27:14;;;;;;;71.40;67.12;;;;;;;27.28;43.52;100212.72;1764043;80;25374;-47
2023/06/16 08:29:40;;;;;;;71.28;67.37;;;;;;;27.33;43.29;100205.89;1791047;79;25416;-47
2023/06/16 08:32:08;;;;;;;69.90;65.90;;;;;;;27.42;43.16;100207.48;1788417;80;25633;-45
2023/06/16 08:34:36;;;;;;;73.00;68.80;;;;;;;27.49;42.90;100210.12;1813742;79;25438;-45
2023/06/16 08:37:05;;;;;;;71.62;66.33;;;;;;;27.52;42.29;100210.66;1788150;80;29736;-46
2023/06/16 08:39:31;;;;;;;74.53;70.20;;;;;;;27.46;41.70;100209.58;1813072;79;25617;-47
2023/06/16 08:42:00;;;;;;;71.28;66.42;;;;;;;27.42;41.49;100207.48;1788397;79;25457;-48
2023/06/16 08:44:27;;;;;;;10.93;10.35;;;;;;;;;;1813845;78;25589;-45
2023/06/16 08:46:53;;;;;;;5.27;5.07;;;;;;;;;;1789390;79;25557;-45
2023/06/16 08:49:19;;;;;;;48.43;45.47;;;;;;;;;;1815297;79;27456;-44
2023/06/16 08:51:51;;;;;;;72.05;67.45;;;;;;;;;;1815185;79;25946;-45
2023/06/16 08:54:20;;;;;;;14.73;13.98;;;;;;;;;;1815352;79;25631;-45
2023/06/16 08:56:48;;;;;;;5.87;5.65;;;;;;;;;;1815316;79;25570;-44
2023/06/16 08:59:15;;;;;;;7.33;7.03;;;;;;;;;;1815525;79;25598;-45
2023/06/16 09:01:42;;;;;;;64.37;60.58;;;;;;;;;;1815470;79;28131;-44
2023/06/16 09:04:08;;;;;;;68.45;64.15;;;;;;;;;;1788021;79;27310;-44
2023/06/16 09:06:36;;;;;;;41.40;38.92;;;;;;;;;;1815476;79;25428;-45
2023/06/16 09:09:04;;;;;;;49.88;46.75;;;;;;;;;;1815414;79;25553;-44
2023/06/16 09:11:30;;;;;;;73.75;69.25;;;;;;;;;;1815323;79;25399;-44
2023/06/16 09:13:56;;;;;;;101.43;94.80;;;;;;;;;;1815281;79;27596;-44
2023/06/16 09:16:24;;;;;;;3.70;3.55;;;;;;;;;;1815298;79;25529;-44
2023/06/16 09:18:51;;;;;;;6.33;6.12;;;;;;;;;;1815326;79;25462;-44
2023/06/16 09:21:22;;;;;;;6.93;6.53;;;;;;;;;;1815369;79;25540;-44
2023/06/16 09:23:57;;;;;;;6.28;5.97;;;;;;;;;;1815439;79;25533;-43
2023/06/16 09:26:30;;;;;;;10.48;9.90;;;;;;;;;;1815359;79;28132;-44
2023/06/16 09:28:51;;;;;;;3.67;3.58;;;;;;;;;;1813578;79;25917;-44
2023/06/16 09:31:22;;;;;;;14.30;13.55;;;;;;;;;;1815244;79;25569;-44
2023/06/16 09:33:49;;;;;;;4.17;4.00;;;;;;;;;;1815209;79;25570;-44
2023/06/16 09:36:26;;;;;;;9.95;9.43;;;;;;;;;;1815403;79;25292;-43
2023/06/16 09:38:54;;;;;;;6.30;6.00;;;;;;;;;;1815548;79;26421;-44
2023/06/16 09:41:20;;;;;;;8.65;8.25;;;;;;;;;;1815298;79;25282;-48
2023/06/16 09:43:48;;;;;;;11.33;10.73;;;;;;;;;;1815492;79;25448;-50
2023/06/16 09:46:15;;;;;;;6.00;5.75;;;;;;;;;;1815333;79;25599;-48
2023/06/16 09:48:47;;;;;;;15.78;14.93;;;;;;;;;;1815546;79;25575;-49
2023/06/16 09:51:22;;;;;;;3.98;3.80;;;;;;;;;;1810139;79;27328;-48
2023/06/16 09:53:51;;;;;;;4.60;4.40;;;;;;;;;;1810096;79;25605;-49
2023/06/16 09:56:19;;;;;;;6.67;6.37;;;;;;;;;;1810169;79;25514;-47
2023/06/16 09:58:48;;;;;;;3.72;3.60;;;;;;;;;;1810295;79;26133;-47
2023/06/16 10:01:16;;;;;;;7.50;7.10;;;;;;;;;;1810160;79;25506;-48
2023/06/16 10:03:47;;;;;;;4.95;4.75;;;;;;;;;;1810271;79;27966;-47
2023/06/16 10:06:18;;;;;;;6.10;5.80;;;;;;;;;;1810120;79;25311;-47
2023/06/16 10:08:49;;;;;;;15.90;15.03;;;;;;;;;;1810255;79;25282;-47
2023/06/16 10:11:18;;;;;;;12.33;11.38;;;;;;;;;;1810233;79;25484;-47
2023/06/16 10:13:53;;;;;;;16.37;15.43;;;;;;;;;;1810321;79;25355;-47
2023/06/16 10:16:23;;;;;;;10.00;9.50;;;;;;;;;;1810306;79;27921;-47
2023/06/16 10:18:50;;;;;;;17.37;13.22;;;;;;;;;;1810205;79;25482;-48
2023/06/16 10:21:18;;;;;;;14.98;14.13;;;;;;;;;;1810419;79;25362;-47
2023/06/16 10:23:45;;;;;;;8.60;8.20;;;;;;;;;;1810284;79;25652;-48
2023/06/16 10:26:13;;;;;;;13.58;12.78;;;;;;;;;;1810482;79;25449;-48
2023/06/16 10:28:41;;;;;;;6.58;6.28;;;;;;;;;;1810344;79;27141;-46
2023/06/16 10:31:08;;;;;;;;;;;;;;;;;;1812890;79;25480;-47
2023/06/16 10:33:53;;;;;;;6.25;5.97;;;;;;;;;;1810416;79;25476;-46
2023/06/16 10:36:28;;;;;;;6.62;6.33;;;;;;;;;;1810263;79;25532;-46
2023/06/16 10:39:03;;;;;;;9.20;8.73;;;;;;;;;;1810361;79;25423;-48
2023/06/16 10:41:31;;;;;;;8.50;8.13;;;;;;;;;;1805991;79;29543;-48
2023/06/16 10:44:16;;;;;;;;;;;;;;;;;;1812824;79;25584;-46
2023/06/16 10:46:43;;;;;;;8.93;8.53;;;;;;;;;;1811367;79;25510;-47
2023/06/16 10:49:11;;;;;;;12.80;12.20;;;;;;;;;;1813508;79;25519;-47
2023/06/16 10:51:56;;;;;;;8.40;8.00;;;;;;;;;;1813439;79;25470;-48
2023/06/16 10:54:44;;;;;;;6.03;5.72;;;;;;;;;;1811671;79;28700;-47
2023/06/16 10:57:13;;;;;;;8.15;7.75;;;;;;;;;;1813350;79;25537;-46
2023/06/16 11:00:10;;;;;;;13.32;12.60;;;;;;;;;;1813358;79;25488;-48
2023/06/16 11:02:34;;;;;;;7.75;7.17;;;;;;;;;;1812333;79;25898;-48
2023/06/16 11:05:10;;;;;;;78.12;72.47;;;;;;;;;;1813443;79;25361;-48
2023/06/16 11:07:46;;;;;;;98.03;91.40;;;;;;;;;;1813462;79;29663;-50
2023/06/16 11:10:18;;;;;;;93.78;86.97;;;;;;;;;;1813430;79;25284;-47
2023/06/16 11:12:46;;;;;;;13.25;12.55;;;;;;;;;;1813392;79;25300;-49
2023/06/16 11:15:13;;;;;;;4.42;4.22;;;;;;;;;;1813487;79;26182;-50
2023/06/16 11:17:44;;;;;;;11.00;10.28;;;;;;;;;;1813566;79;25513;-49
2023/06/16 11:20:13;;;;;;;10.93;10.40;;;;;;;;;;1813397;79;27410;-50
2023/06/16 11:22:42;;;;;;;10.23;9.65;;;;;;;;;;1813264;79;25690;-46
2023/06/16 11:25:09;;;;;;;11.38;10.75;;;;;;;;;;1813362;79;25295;-49
2023/06/16 11:27:38;;;;;;;7.53;7.00;;;;;;;;;;1813496;79;25523;-49
2023/06/16 11:30:08;;;;;;;17.70;16.70;;;;;;;;;;1813381;79;25503;-54
2023/06/16 11:32:37;;;;;;;7.37;7.05;;;;;;;;;;1813397;79;27382;-51
2023/06/16 11:35:05;;;;;;;11.75;11.15;;;;;;;;;;1813222;79;25509;-49
2023/06/16 11:37:48;;;;;;;13.98;13.32;;;;;;;;;;1813506;79;25533;-50
2023/06/16 11:40:22;;;;;;;6.25;5.95;;;;;;;;;;1813326;79;25497;-50
2023/06/16 11:43:00;;;;;;;10.13;9.63;;;;;;;;;;1813364;79;25320;-48
2023/06/16 11:45:31;;;;;;;7.87;7.40;;;;;;;;;;1813429;79;27927;-50
2023/06/16 11:48:00;;;;;;;8.23;7.83;;;;;;;;;;1813246;79;25344;-52
2023/06/16 11:50:28;;;;;;;5.87;5.65;;;;;;;;;;1813395;79;25343;-64
2023/06/16 11:52:57;;;;;;;7.42;7.12;;;;;;;;;;1813323;79;26130;-63
2023/06/16 11:55:25;;;;;;;7.80;7.50;;;;;;;;;;1813372;79;25349;-63
2023/06/16 11:57:52;;;;;;;9.20;8.80;;;;;;;;;;1813336;79;27940;-62
2023/06/16 12:00:21;;;;;;;10.00;9.60;;;;;;;;;;1813412;79;25349;-63
2023/06/16 12:02:49;;;;;;;10.63;10.13;;;;;;;;;;1813265;79;25320;-64
2023/06/16 12:05:23;;;;;;;13.35;12.73;;;;;;;;;;1812383;79;25501;-62
2023/06/16 12:07:51;;;;;;;13.08;12.50;;;;;;;;;;1812001;79;25578;-63
2023/06/16 12:10:18;;;;;;;;;;;;;;;;;;1815636;79;27373;-63
2023/06/16 12:12:47;;;;;;;11.88;11.22;;;;;;;;;;1813389;79;25341;-61
2023/06/16 12:15:17;;;;;;;12.45;11.78;;;;;;;;;;1813334;79;25332;-62